Time;durP1;ratioP1;P1;durP2;ratioP2;P2;SDS_P1;SDS_P2;PMS_P1;PMS_P2;Temp;Humidity;BMP_temperature;BMP_pressure;BME280_temperature;BME280_humidity;BME280_pressure;Samples;Min_cycle;Max_cycle;Signal;HPM_P1;HPM_P2
2022/09/27 00:00:37;;;;;;;1.35;0.80;;;11.30;99.90;;;;;;4903940;29;20214;-88
2022/09/27 00:03:04;;;;;;;0.98;0.80;;;11.20;99.90;;;;;;4903637;29;20182;-90
2022/09/27 00:05:30;;;;;;;1.63;0.80;;;11.20;99.90;;;;;;4903819;29;20210;-86
2022/09/27 00:07:56;;;;;;;2.53;0.85;;;11.20;99.90;;;;;;4903718;29;20574;-88
2022/09/27 00:10:22;;;;;;;1.63;0.80;;;11.20;99.90;;;;;;4903274;29;20218;-88
2022/09/27 00:12:50;;;;;;;1.95;0.77;;;11.20;99.90;;;;;;4902705;29;20258;-88
2022/09/27 00:15:16;;;;;;;1.85;0.80;;;11.20;99.90;;;;;;4903351;29;20178;-86
2022/09/27 00:17:42;;;;;;;4.38;0.77;;;11.20;99.90;;;;;;4903426;29;20278;-88
2022/09/27 00:20:09;;;;;;;1.48;0.88;;;11.20;99.90;;;;;;4902707;29;20191;-87
2022/09/27 00:22:35;;;;;;;0.90;0.80;;;11.20;99.90;;;;;;4903293;29;20234;-87
2022/09/27 00:25:04;;;;;;;1.00;0.60;;;11.10;99.90;;;;;;4903349;29;20504;-87
2022/09/27 00:27:30;;;;;;;1.45;0.70;;;11.20;99.90;;;;;;4919443;29;20186;-87
2022/09/27 00:29:56;;;;;;;1.98;0.80;;;11.10;99.90;;;;;;4919731;29;20210;-87
2022/09/27 00:32:22;;;;;;;2.00;0.75;;;11.10;99.90;;;;;;4903098;29;20186;-86
2022/09/27 00:34:52;;;;;;;0.90;0.70;;;11.20;99.90;;;;;;4902844;29;20175;-88
2022/09/27 00:37:17;;;;;;;2.72;0.60;;;11.10;99.90;;;;;;4920204;29;20171;-88
2022/09/27 00:39:43;;;;;;;1.67;0.68;;;11.10;99.90;;;;;;4919587;29;20234;-89
2022/09/27 00:42:10;;;;;;;2.42;0.65;;;11.10;99.90;;;;;;4919034;29;20262;-87
2022/09/27 00:44:40;;;;;;;1.33;0.75;;;11.10;99.90;;;;;;4902701;29;20185;-86
2022/09/27 00:47:22;;;;;;;1.02;0.57;;;11.10;99.90;;;;;;4902988;29;20179;-86
2022/09/27 00:49:55;;;;;;;1.92;0.68;;;11.10;99.90;;;;;;4902933;29;20261;-88
2022/09/27 00:52:48;;;;;;;1.80;0.70;;;11.10;99.90;;;;;;4902624;29;20521;-85
2022/09/27 00:55:24;;;;;;;1.58;0.68;;;11.10;99.90;;;;;;4902502;29;20182;-86
2022/09/27 00:57:51;;;;;;;0.77;0.60;;;11.10;99.90;;;;;;4902308;29;20175;-87
2022/09/27 01:00:17;;;;;;;0.90;0.70;;;11.10;99.90;;;;;;4902397;29;20179;-85
2022/09/27 01:02:48;;;;;;;0.65;0.60;;;11.10;99.90;;;;;;4902110;29;20190;-88
2022/09/27 01:05:16;;;;;;;1.10;0.60;;;11.10;99.90;;;;;;4902490;29;20175;-87
2022/09/27 01:07:42;;;;;;;1.10;0.60;;;11.10;99.90;;;;;;4902505;29;20182;-87
2022/09/27 01:10:08;;;;;;;0.70;0.50;;;11.10;99.90;;;;;;4902411;29;20218;-87
2022/09/27 01:13:00;;;;;;;0.70;0.55;;;11.10;99.90;;;;;;4901868;29;20317;-88
2022/09/27 01:15:32;;;;;;;1.58;0.60;;;11.10;99.90;;;;;;4873414;29;20187;-85
2022/09/27 01:18:20;;;;;;;2.25;0.43;;;11.10;99.90;;;;;;4902206;29;20182;-87
2022/09/27 01:20:48;;;;;;;1.98;0.65;;;11.10;99.90;;;;;;4918106;29;20597;-86
2022/09/27 01:23:34;;;;;;;0.50;0.50;;;11.10;99.90;;;;;;4901956;29;20190;-87
2022/09/27 01:26:15;;;;;;;1.50;0.70;;;11.10;99.90;;;;;;4901983;29;20293;-88
2022/09/27 01:29:14;;;;;;;0.63;0.50;;;11.10;99.90;;;;;;4902118;29;20186;-86
2022/09/27 01:32:04;;;;;;;0.73;0.60;;;11.10;99.90;;;;;;4901675;29;20215;-87
2022/09/27 01:34:49;;;;;;;1.10;0.80;;;11.10;99.90;;;;;;4917709;29;20246;-86
2022/09/27 01:37:33;;;;;;;0.45;0.45;;;11.10;99.90;;;;;;4919082;29;20253;-88
2022/09/27 01:40:05;;;;;;;0.98;0.60;;;11.10;99.90;;;;;;4901965;29;20186;-90
2022/09/27 01:42:40;;;;;;;2.20;0.65;;;11.10;99.90;;;;;;4901732;29;20262;-90
2022/09/27 01:45:21;;;;;;;1.10;0.82;;;11.10;99.90;;;;;;4918861;29;20167;-90
2022/09/27 01:48:09;;;;;;;1.00;0.60;;;11.10;99.90;;;;;;4902092;29;20269;-90
2022/09/27 01:50:53;;;;;;;1.90;0.70;;;11.10;99.90;;;;;;4918882;29;20585;-88
2022/09/27 01:53:32;;;;;;;0.70;0.57;;;11.10;99.90;;;;;;4901942;29;20170;-86
2022/09/27 01:56:02;;;;;;;0.90;0.70;;;11.00;99.90;;;;;;4918384;29;20231;-91
2022/09/27 01:58:52;;;;;;;0.57;0.50;;;11.10;99.90;;;;;;4918719;29;20174;-91
2022/09/27 02:01:20;;;;;;;0.85;0.60;;;11.00;99.90;;;;;;4901840;29;20171;-91
2022/09/27 02:03:50;;;;;;;0.52;0.50;;;11.10;99.90;;;;;;4901742;29;20202;-90
2022/09/27 02:06:24;;;;;;;0.60;0.60;;;11.00;99.90;;;;;;4901564;29;20174;-92
2022/09/27 02:08:59;;;;;;;0.85;0.60;;;11.00;99.90;;;;;;4918726;29;20221;-91
2022/09/27 02:11:26;;;;;;;1.15;0.60;;;11.10;99.90;;;;;;4894740;29;20243;-91
2022/09/27 02:14:26;;;;;;;0.63;0.60;;;11.10;99.90;;;;;;4899788;29;20179;-92
2022/09/27 02:17:31;;;;;;;1.13;0.80;;;11.00;99.90;;;;;;4899879;29;20250;-92
2022/09/27 02:20:02;;;;;;;1.13;0.93;;;11.10;99.90;;;;;;4832442;29;20195;-91
2022/09/27 02:22:43;;;;;;;0.50;0.50;;;11.10;99.90;;;;;;4883086;29;20175;-90
2022/09/27 02:25:26;;;;;;;0.63;0.47;;;11.10;99.90;;;;;;4883024;29;20183;-89
2022/09/27 02:28:17;;;;;;;2.08;0.70;;;11.10;99.90;;;;;;4882901;29;20175;-88
2022/09/27 02:30:44;;;;;;;0.50;0.50;;;11.10;99.90;;;;;;4882066;29;20249;-90
2022/09/27 02:33:10;;;;;;;0.60;0.50;;;11.00;99.90;;;;;;4882909;29;20175;-86
2022/09/27 02:35:40;;;;;;;1.20;0.60;;;11.10;99.90;;;;;;4882855;29;20338;-87
2022/09/27 02:38:06;;;;;;;2.10;0.73;;;11.10;99.90;;;;;;4882966;29;20180;-91
2022/09/27 02:40:35;;;;;;;0.60;0.52;;;11.10;99.90;;;;;;4882502;29;20247;-93
2022/09/27 02:43:04;;;;;;;2.65;0.65;;;11.10;99.90;;;;;;4882518;29;20518;-92
2022/09/27 02:45:59;;;;;;;1.33;0.60;;;11.10;99.90;;;;;;4886655;29;20984;-90
2022/09/27 02:49:18;;;;;;;0.88;0.70;;;11.10;99.90;;;;;;4886551;29;20183;-91
2022/09/27 02:51:56;;;;;;;1.50;0.82;;;11.10;99.90;;;;;;4856872;29;20227;-92
2022/09/27 02:54:40;;;;;;;1.17;0.88;;;11.10;99.90;;;;;;4886391;29;20254;-91
2022/09/27 02:57:20;;;;;;;2.10;0.90;;;11.00;99.90;;;;;;4886513;29;20243;-93
2022/09/27 03:00:04;;;;;;;1.10;0.70;;;11.00;99.90;;;;;;4886554;29;20179;-94
2022/09/27 03:02:57;;;;;;;1.40;0.90;;;11.00;99.90;;;;;;4886640;29;20184;-93
2022/09/27 03:05:27;;;;;;;1.27;1.00;;;11.10;99.90;;;;;;4901980;29;20626;-92
2022/09/27 03:07:53;;;;;;;1.45;1.00;;;11.10;99.90;;;;;;4886434;29;20176;-90
2022/09/27 03:10:22;;;;;;;4.35;1.70;;;11.00;99.90;;;;;;4902948;29;20207;-92
2022/09/27 03:12:49;;;;;;;2.10;1.40;;;11.00;99.90;;;;;;4903393;29;20725;-93
2022/09/27 03:15:16;;;;;;;2.15;1.08;;;11.00;99.90;;;;;;4904972;29;20186;-93
2022/09/27 03:17:42;;;;;;;2.92;1.70;;;11.00;99.90;;;;;;4905055;29;20685;-93
2022/09/27 03:20:08;;;;;;;2.35;1.48;;;11.00;99.90;;;;;;4904833;29;20178;-92
2022/09/27 03:22:34;;;;;;;3.05;1.52;;;11.00;99.90;;;;;;4904754;29;20239;-92
2022/09/27 03:25:05;;;;;;;5.18;1.67;;;11.00;99.90;;;;;;4904886;29;20650;-87
2022/09/27 03:27:31;;;;;;;3.05;1.63;;;11.00;99.90;;;;;;4904689;29;20202;-87
2022/09/27 03:29:58;;;;;;;2.13;1.60;;;11.00;99.90;;;;;;4904714;29;20492;-88
2022/09/27 03:32:25;;;;;;;3.17;1.52;;;11.00;99.90;;;;;;4904988;29;20278;-91
2022/09/27 03:35:00;;;;;;;2.70;1.63;;;10.90;99.90;;;;;;4921575;29;20182;-92
2022/09/27 03:37:28;;;;;;;2.60;1.40;;;11.00;99.90;;;;;;4921520;29;20177;-91
2022/09/27 03:39:54;;;;;;;2.92;1.60;;;11.00;99.90;;;;;;4904017;29;20262;-90
2022/09/27 03:42:20;;;;;;;3.08;1.70;;;11.00;99.90;;;;;;4904402;29;20206;-93
2022/09/27 03:45:17;;;;;;;4.22;1.60;;;11.00;99.90;;;;;;4904408;29;20179;-92
2022/09/27 03:47:43;;;;;;;3.67;1.60;;;11.00;99.90;;;;;;4921349;29;20254;-92
2022/09/27 03:50:11;;;;;;;4.05;1.63;;;11.00;99.90;;;;;;4904387;29;20251;-90
2022/09/27 03:52:37;;;;;;;4.43;1.42;;;11.00;99.90;;;;;;4904504;29;20206;-91
2022/09/27 03:55:06;;;;;;;2.10;1.33;;;11.00;99.90;;;;;;4903340;29;20266;-93
2022/09/27 03:57:32;;;;;;;4.55;1.30;;;11.00;99.90;;;;;;4904233;29;20189;-93
2022/09/27 03:59:58;;;;;;;3.33;1.48;;;11.00;99.90;;;;;;4904184;29;20174;-92
2022/09/27 04:02:25;;;;;;;1.70;1.40;;;11.00;99.90;;;;;;4904298;29;20189;-92
2022/09/27 04:04:52;;;;;;;2.47;1.63;;;11.00;99.90;;;;;;4904155;29;20618;-91
2022/09/27 04:07:18;;;;;;;3.50;1.50;;;11.00;99.90;;;;;;4904203;29;20210;-94
2022/09/27 04:09:45;;;;;;;2.28;1.40;;;11.00;99.90;;;;;;4904277;29;20216;-91
2022/09/27 04:12:12;;;;;;;2.05;1.38;;;11.00;99.90;;;;;;4903625;29;20246;-88
2022/09/27 04:14:37;;;;;;;2.55;1.40;;;11.00;99.90;;;;;;4903186;29;20182;-88
2022/09/27 04:17:03;;;;;;;1.95;1.20;;;11.00;99.90;;;;;;4920171;29;20230;-91
2022/09/27 04:19:29;;;;;;;2.67;1.30;;;11.00;99.90;;;;;;4903507;29;20918;-88
2022/09/27 04:21:55;;;;;;;1.75;1.40;;;11.00;99.90;;;;;;4903693;29;20175;-88
2022/09/27 04:24:20;;;;;;;2.20;1.52;;;11.00;99.90;;;;;;4903539;29;20184;-89
2022/09/27 04:26:48;;;;;;;3.10;1.33;;;11.00;99.90;;;;;;4903241;29;20610;-90
2022/09/27 04:29:15;;;;;;;2.42;1.30;;;11.00;99.90;;;;;;4903285;29;20186;-89
2022/09/27 04:31:43;;;;;;;3.00;1.55;;;11.00;99.90;;;;;;4903097;29;20329;-88
2022/09/27 04:34:09;;;;;;;7.28;2.05;;;11.00;99.90;;;;;;4902855;29;20493;-89
2022/09/27 04:36:37;;;;;;;3.72;1.45;;;11.00;99.90;;;;;;4903194;29;20273;-89
2022/09/27 04:39:05;;;;;;;1.35;1.08;;;11.00;99.90;;;;;;4903440;29;20197;-89
2022/09/27 04:41:31;;;;;;;2.00;1.00;;;11.00;99.90;;;;;;4903067;29;20182;-87
2022/09/27 04:43:59;;;;;;;2.13;1.13;;;11.00;99.90;;;;;;4919731;29;20182;-89
2022/09/27 04:46:30;;;;;;;2.00;1.00;;;11.00;99.90;;;;;;4918870;29;20270;-89
2022/09/27 04:48:58;;;;;;;1.85;1.25;;;11.00;99.90;;;;;;4903252;29;20210;-89
2022/09/27 04:51:23;;;;;;;1.75;1.30;;;11.10;99.90;;;;;;4902832;29;20676;-87
2022/09/27 04:53:49;;;;;;;1.95;1.20;;;11.00;99.90;;;;;;4902929;29;20190;-89
2022/09/27 04:56:15;;;;;;;2.20;1.20;;;11.10;99.90;;;;;;4919590;29;20265;-87
2022/09/27 04:58:40;;;;;;;3.70;1.20;;;11.10;99.90;;;;;;4902549;29;20523;-87
2022/09/27 05:01:08;;;;;;;1.77;1.20;;;11.00;99.90;;;;;;4902657;29;20657;-86
2022/09/27 05:03:33;;;;;;;3.95;1.35;;;11.00;99.90;;;;;;4902816;29;20238;-89
2022/09/27 05:06:00;;;;;;;1.23;1.08;;;11.00;99.90;;;;;;4902612;29;20214;-87
2022/09/27 05:08:26;;;;;;;4.72;1.50;;;11.00;99.90;;;;;;4902473;29;20175;-87
2022/09/27 05:10:53;;;;;;;2.72;1.10;;;11.00;99.90;;;;;;4883533;29;20261;-88
2022/09/27 05:13:19;;;;;;;5.20;1.08;;;11.00;99.90;;;;;;4888569;29;20507;-88
2022/09/27 05:15:45;;;;;;;3.65;1.50;;;11.00;99.90;;;;;;4918836;29;20179;-88
2022/09/27 05:18:11;;;;;;;2.55;1.35;;;11.00;99.90;;;;;;4902422;29;20178;-88
2022/09/27 05:20:37;;;;;;;3.13;1.48;;;11.00;99.90;;;;;;4901785;29;20186;-90
2022/09/27 05:23:03;;;;;;;2.17;1.50;;;11.00;99.90;;;;;;4901655;29;20190;-91
2022/09/27 05:25:30;;;;;;;2.88;1.25;;;11.00;99.90;;;;;;4902332;29;20184;-90
2022/09/27 05:27:57;;;;;;;1.70;1.35;;;11.10;99.90;;;;;;4901955;29;20186;-89
2022/09/27 05:30:23;;;;;;;2.10;1.45;;;11.00;99.90;;;;;;4902001;29;20214;-88
2022/09/27 05:32:49;;;;;;;4.38;1.80;;;11.00;99.90;;;;;;4898996;29;20187;-92
2022/09/27 05:35:19;;;;;;;4.80;1.70;;;11.00;99.90;;;;;;4902195;29;20225;-90
2022/09/27 05:37:55;;;;;;;3.88;1.85;;;11.00;99.90;;;;;;4883508;29;20195;-91
2022/09/27 05:40:23;;;;;;;2.72;1.75;;;11.00;99.90;;;;;;4898412;29;20729;-92
2022/09/27 05:42:52;;;;;;;6.70;2.10;;;11.00;99.90;;;;;;4902329;29;20507;-91
2022/09/27 05:45:19;;;;;;;2.47;1.73;;;11.00;99.90;;;;;;4902231;29;20195;-92
2022/09/27 05:47:53;;;;;;;4.75;1.90;;;11.00;99.90;;;;;;4902058;29;20571;-91
2022/09/27 05:50:19;;;;;;;5.65;2.35;;;11.00;99.90;;;;;;4901797;29;20292;-93
2022/09/27 05:52:45;;;;;;;3.70;2.20;;;11.00;99.90;;;;;;4902133;29;20278;-91
2022/09/27 05:55:10;;;;;;;4.03;2.47;;;11.10;99.90;;;;;;4902102;29;20250;-89
2022/09/27 05:57:37;;;;;;;3.95;2.20;;;11.00;99.90;;;;;;4901324;29;20622;-90
2022/09/27 06:00:03;;;;;;;4.22;2.75;;;11.00;99.90;;;;;;4901775;29;20171;-89
2022/09/27 06:02:29;;;;;;;3.97;2.60;;;11.00;99.90;;;;;;4918658;29;20175;-88
2022/09/27 06:04:54;;;;;;;5.65;2.58;;;11.00;99.90;;;;;;4901526;29;20277;-90
2022/09/27 06:07:23;;;;;;;2.83;2.35;;;11.10;99.90;;;;;;4901925;29;20324;-89
2022/09/27 06:09:49;;;;;;;3.35;2.80;;;11.10;99.90;;;;;;4901833;29;20201;-92
2022/09/27 06:12:15;;;;;;;5.03;2.75;;;11.10;99.90;;;;;;4901195;29;20273;-90
2022/09/27 06:14:40;;;;;;;3.33;2.60;;;11.10;99.90;;;;;;4901286;29;20301;-89
2022/09/27 06:17:09;;;;;;;3.17;2.72;;;11.10;99.90;;;;;;4901731;29;20648;-89
2022/09/27 06:19:35;;;;;;;3.70;2.38;;;11.10;99.90;;;;;;4906674;29;20167;-89
2022/09/27 06:22:00;;;;;;;4.82;2.17;;;11.10;99.90;;;;;;4907966;29;20225;-89
2022/09/27 06:24:26;;;;;;;4.82;2.00;;;11.10;99.90;;;;;;4924388;29;20179;-88
2022/09/27 06:26:59;;;;;;;2.63;2.13;;;11.10;99.90;;;;;;4907945;29;20571;-90
2022/09/27 06:29:25;;;;;;;2.10;1.90;;;11.10;99.90;;;;;;4907868;29;20200;-89
2022/09/27 06:31:50;;;;;;;3.95;2.13;;;11.10;99.90;;;;;;4907625;29;20657;-88
2022/09/27 06:34:16;;;;;;;2.67;1.98;;;11.10;99.90;;;;;;4907346;29;20185;-89
2022/09/27 06:36:42;;;;;;;3.85;2.25;;;11.10;99.90;;;;;;4907518;29;20181;-89
2022/09/27 06:39:07;;;;;;;4.30;2.50;;;11.00;99.90;;;;;;4906683;29;20202;-89
2022/09/27 06:41:34;;;;;;;6.00;2.50;;;11.00;99.90;;;;;;4907173;29;20194;-89
2022/09/27 06:44:00;;;;;;;4.00;2.22;;;11.00;99.90;;;;;;4907465;29;20182;-88
2022/09/27 06:46:27;;;;;;;5.65;2.65;;;11.00;99.90;;;;;;4924038;29;20685;-86
2022/09/27 06:48:53;;;;;;;6.28;2.55;;;11.00;99.90;;;;;;4924304;29;20223;-86
2022/09/27 06:51:19;;;;;;;3.13;2.20;;;11.00;99.90;;;;;;4907277;29;20214;-87
2022/09/27 06:53:45;;;;;;;3.38;2.10;;;11.00;99.90;;;;;;4924064;29;20682;-86
2022/09/27 06:56:10;;;;;;;3.42;2.20;;;11.00;99.90;;;;;;4907205;29;20201;-87
2022/09/27 07:01:27;;;;;;;4.20;2.15;;;11.00;99.90;;;;;;4924421;29;20185;-86
2022/09/27 07:03:53;;;;;;;3.03;1.90;;;10.90;99.90;;;;;;4907314;29;20230;-86
2022/09/27 07:06:22;;;;;;;3.35;2.05;;;10.90;99.90;;;;;;4907265;29;20190;-89
2022/09/27 07:08:52;;;;;;;3.83;2.13;;;10.90;99.90;;;;;;4908704;29;20238;-87
2022/09/27 07:11:18;;;;;;;4.38;2.33;;;10.90;99.90;;;;;;4927937;29;20242;-84
2022/09/27 07:13:44;;;;;;;2.92;2.40;;;10.90;99.90;;;;;;4907352;29;20167;-87
2022/09/27 07:16:12;;;;;;;2.80;2.15;;;10.90;99.90;;;;;;4924004;29;20723;-86
2022/09/27 07:18:42;;;;;;;3.28;2.10;;;11.00;99.90;;;;;;4907102;29;20186;-86
2022/09/27 07:21:08;;;;;;;5.03;2.35;;;10.90;99.90;;;;;;4907114;29;20187;-86
2022/09/27 07:23:35;;;;;;;5.82;2.35;;;10.90;99.90;;;;;;4906922;29;20185;-89
2022/09/27 07:26:03;;;;;;;5.80;2.70;;;10.90;99.90;;;;;;4923689;29;20513;-86
2022/09/27 07:28:29;;;;;;;4.30;2.50;;;10.90;99.90;;;;;;4924080;29;20167;-88
2022/09/27 07:30:55;;;;;;;4.85;2.20;;;10.90;99.90;;;;;;4904711;29;20206;-89
2022/09/27 07:33:21;;;;;;;5.30;2.92;;;11.00;99.90;;;;;;4902805;29;20186;-84
2022/09/27 07:35:47;;;;;;;3.63;2.40;;;11.00;99.90;;;;;;4903713;29;20190;-88
2022/09/27 07:38:25;;;;;;;3.75;2.70;;;11.00;99.90;;;;;;4904096;29;20191;-86
2022/09/27 07:40:51;;;;;;;3.95;2.70;;;11.00;99.90;;;;;;4903753;29;20186;-88
2022/09/27 07:43:18;;;;;;;4.38;2.83;;;11.10;99.90;;;;;;4903999;29;20242;-90
2022/09/27 07:45:45;;;;;;;6.70;3.38;;;11.00;99.90;;;;;;4903910;29;20504;-90
2022/09/27 07:48:14;;;;;;;6.47;3.55;;;11.10;99.90;;;;;;4920915;29;20182;-88
2022/09/27 07:50:40;;;;;;;5.55;3.22;;;11.10;99.90;;;;;;4904031;29;20241;-91
2022/09/27 07:53:06;;;;;;;4.50;3.58;;;11.10;99.90;;;;;;4904122;29;20272;-87
2022/09/27 07:55:32;;;;;;;7.20;3.10;;;11.10;99.90;;;;;;4920599;29;20175;-90
2022/09/27 07:58:11;;;;;;;5.82;3.33;;;11.10;99.90;;;;;;4904081;29;20522;-88
2022/09/27 08:00:39;;;;;;;8.23;3.90;;;11.10;99.90;;;;;;4920751;29;20167;-89
2022/09/27 08:03:15;;;;;;;4.78;2.97;;;11.20;99.90;;;;;;4903635;29;20214;-90
2022/09/27 08:05:46;;;;;;;6.78;2.85;;;11.20;99.90;;;;;;4903254;29;20238;-92
2022/09/27 08:08:16;;;;;;;4.95;3.33;;;11.20;99.90;;;;;;4903824;29;20202;-92
2022/09/27 08:10:43;;;;;;;5.30;3.33;;;11.20;99.90;;;;;;4895500;29;20695;-88
2022/09/27 08:13:09;;;;;;;3.75;2.70;;;11.30;99.90;;;;;;4902744;29;20198;-94
2022/09/27 08:15:37;;;;;;;3.83;2.72;;;11.30;99.90;;;;;;4929182;29;20289;-89
2022/09/27 08:18:04;;;;;;;5.85;2.20;;;11.40;99.90;;;;;;4905506;29;20200;-88
2022/09/27 08:20:30;;;;;;;6.03;2.30;;;11.40;99.90;;;;;;4925061;29;20190;-89
2022/09/27 08:22:59;;;;;;;3.53;2.30;;;11.40;99.90;;;;;;4905403;29;20195;-91
2022/09/27 08:25:27;;;;;;;4.07;2.33;;;11.40;99.90;;;;;;4905339;29;20190;-88
2022/09/27 08:28:00;;;;;;;2.22;1.83;;;11.40;99.90;;;;;;4920489;29;20716;-90
2022/09/27 08:30:28;;;;;;;4.43;2.00;;;11.30;99.90;;;;;;4902093;29;20218;-90
2022/09/27 08:32:58;;;;;;;4.88;1.98;;;11.40;99.90;;;;;;4926474;29;20255;-93
2022/09/27 08:35:24;;;;;;;2.90;1.88;;;11.30;99.90;;;;;;4921817;29;20190;-93
2022/09/27 08:37:58;;;;;;;3.85;1.70;;;11.30;99.90;;;;;;4903506;29;20531;-90
2022/09/27 08:40:55;;;;;;;4.10;1.58;;;11.30;99.90;;;;;;4900029;29;20193;-87
2022/09/27 08:43:39;;;;;;;4.30;1.42;;;11.30;99.90;;;;;;4919768;29;20183;-92
2022/09/27 08:46:08;;;;;;;4.38;1.50;;;11.20;99.90;;;;;;4926859;29;20187;-90
2022/09/27 08:48:36;;;;;;;5.22;1.77;;;11.30;99.90;;;;;;4905395;29;20189;-91
2022/09/27 08:51:05;;;;;;;3.33;1.70;;;11.30;99.90;;;;;;4921206;29;20211;-92
2022/09/27 08:53:37;;;;;;;2.63;1.60;;;11.30;99.90;;;;;;4905787;29;20191;-88
2022/09/27 08:56:06;;;;;;;2.60;1.50;;;11.30;99.90;;;;;;4922140;29;20198;-90
2022/09/27 08:58:42;;;;;;;4.30;1.80;;;11.30;99.90;;;;;;4925815;29;20178;-88
2022/09/27 09:01:15;;;;;;;5.70;1.45;;;11.30;99.90;;;;;;4904139;29;20702;-90
2022/09/27 09:03:54;;;;;;;3.90;1.65;;;11.30;99.90;;;;;;4909904;29;20237;-89
2022/09/27 09:06:44;;;;;;;3.45;1.80;;;11.30;99.90;;;;;;4918241;29;20178;-91
2022/09/27 09:09:30;;;;;;;4.25;2.30;;;11.30;99.90;;;;;;4818139;29;20209;-90
2022/09/27 09:15:13;;;;;;;4.10;1.83;;;11.20;99.90;;;;;;4922276;29;20210;-92
2022/09/27 09:17:41;;;;;;;4.40;2.53;;;11.20;99.90;;;;;;4920048;29;20248;-94
2022/09/27 09:20:31;;;;;;;4.90;2.50;;;11.20;99.90;;;;;;4923114;29;20190;-90
2022/09/27 09:23:20;;;;;;;4.45;3.00;;;11.20;99.90;;;;;;4917487;29;20183;-93
2022/09/27 09:26:05;;;;;;;6.05;2.70;;;11.20;99.90;;;;;;4913248;29;20286;-91
2022/09/27 09:28:57;;;;;;;6.25;3.30;;;11.20;99.90;;;;;;4916036;29;20214;-90
2022/09/27 09:31:50;;;;;;;9.65;3.60;;;11.20;99.90;;;;;;4917601;29;20217;-87
2022/09/27 09:34:33;;;;;;;7.13;4.53;;;11.20;99.90;;;;;;4890109;29;20337;-90
2022/09/27 09:37:20;;;;;;;10.32;4.30;;;11.10;99.90;;;;;;4919032;29;20280;-91
2022/09/27 09:39:56;;;;;;;6.25;4.25;;;11.20;99.90;;;;;;4900636;29;20241;-92
2022/09/27 09:42:34;;;;;;;5.47;3.92;;;11.20;99.90;;;;;;4903886;29;20202;-88
2022/09/27 09:45:15;;;;;;;5.75;4.15;;;11.10;99.90;;;;;;4920914;29;20276;-90
2022/09/27 09:47:46;;;;;;;6.75;4.78;;;11.10;99.90;;;;;;4909257;29;20614;-90
2022/09/27 09:50:17;;;;;;;6.53;4.38;;;11.10;99.90;;;;;;4899742;29;20508;-87
2022/09/27 09:52:51;;;;;;;10.30;5.00;;;11.10;99.90;;;;;;4897424;29;20202;-87
2022/09/27 09:55:29;;;;;;;7.82;4.68;;;11.00;99.90;;;;;;4907160;29;20645;-87
2022/09/27 09:58:10;;;;;;;8.55;4.93;;;11.00;99.90;;;;;;4916848;29;20194;-86
2022/09/27 10:00:39;;;;;;;8.77;4.13;;;11.00;99.90;;;;;;4923806;29;20213;-85
2022/09/27 10:03:05;;;;;;;5.70;4.15;;;11.00;99.90;;;;;;4924781;29;21004;-86
2022/09/27 10:05:32;;;;;;;7.22;3.80;;;11.10;99.90;;;;;;4907044;29;20202;-86
2022/09/27 10:08:01;;;;;;;11.07;4.25;;;11.30;99.90;;;;;;4903667;29;20186;-86
2022/09/27 10:10:27;;;;;;;6.68;3.80;;;11.40;99.90;;;;;;4921767;29;20214;-90
2022/09/27 10:12:54;;;;;;;7.97;4.15;;;11.50;99.90;;;;;;4903815;29;20241;-89
2022/09/27 10:15:27;;;;;;;8.90;4.47;;;11.50;99.90;;;;;;4903791;29;20234;-85
2022/09/27 10:17:56;;;;;;;10.43;4.88;;;11.80;99.90;;;;;;4903602;29;20194;-86
2022/09/27 10:20:35;;;;;;;9.73;4.47;;;12.00;99.90;;;;;;4916686;29;20213;-91
2022/09/27 10:23:20;;;;;;;4.57;3.97;;;12.20;99.90;;;;;;4898907;29;20301;-87
2022/09/27 10:25:48;;;;;;;9.55;3.92;;;12.30;99.90;;;;;;4906818;29;20186;-87
2022/09/27 10:28:31;;;;;;;7.55;3.60;;;12.40;99.90;;;;;;4908238;29;20217;-88
2022/09/27 10:31:05;;;;;;;6.32;3.25;;;12.30;99.90;;;;;;4902208;29;20586;-92
2022/09/27 10:33:31;;;;;;;8.07;3.70;;;12.20;99.90;;;;;;4895705;29;20202;-88
2022/09/27 10:35:58;;;;;;;4.32;3.70;;;12.10;99.90;;;;;;4899010;29;20286;-89
2022/09/27 10:38:33;;;;;;;4.00;3.60;;;12.10;99.90;;;;;;4904144;29;20619;-87
2022/09/27 10:41:36;;;;;;;5.95;3.90;;;12.10;99.90;;;;;;4897509;29;20779;-87
2022/09/27 10:44:25;;;;;;;5.50;3.70;;;12.00;99.90;;;;;;4826440;29;20207;-90
2022/09/27 10:47:05;;;;;;;4.15;3.30;;;11.90;99.90;;;;;;4919009;29;20539;-87
2022/09/27 10:49:36;;;;;;;8.02;3.08;;;12.10;99.90;;;;;;4911497;29;20236;-85
2022/09/27 10:52:12;;;;;;;5.65;2.72;;;12.40;99.90;;;;;;4902315;29;20270;-89
2022/09/27 10:54:40;;;;;;;6.63;2.30;;;12.50;99.90;;;;;;4928474;29;20186;-85
2022/09/27 10:57:18;;;;;;;3.90;2.22;;;12.60;99.90;;;;;;4924738;29;20190;-87
2022/09/27 10:59:54;;;;;;;3.67;2.53;;;12.50;99.90;;;;;;4901648;29;20212;-86
2022/09/27 11:02:31;;;;;;;3.78;2.40;;;12.40;99.90;;;;;;4897016;29;20202;-88
2022/09/27 11:05:14;;;;;;;4.20;2.45;;;12.30;99.90;;;;;;4904063;29;20642;-85
2022/09/27 11:07:54;;;;;;;2.65;2.33;;;12.20;99.90;;;;;;4911812;29;20197;-88
2022/09/27 11:10:30;;;;;;;4.07;2.38;;;12.10;99.90;;;;;;4912071;29;20272;-85
2022/09/27 11:13:17;;;;;;;5.20;2.47;;;12.10;99.90;;;;;;4900599;29;20727;-86
2022/09/27 11:15:59;;;;;;;3.25;2.38;;;12.10;99.90;;;;;;4923847;29;20186;-86
2022/09/27 11:18:25;;;;;;;5.43;2.58;;;12.00;99.90;;;;;;4902690;29;20255;-85
2022/09/27 11:21:10;;;;;;;4.18;2.05;;;12.10;99.90;;;;;;4905360;29;20220;-85
2022/09/27 11:24:03;;;;;;;6.15;2.78;;;12.30;99.90;;;;;;4914353;29;20218;-85
2022/09/27 11:26:49;;;;;;;3.85;2.00;;;12.50;99.90;;;;;;4927062;29;20194;-85
2022/09/27 11:29:45;;;;;;;2.65;2.03;;;12.80;99.90;;;;;;4919408;29;20265;-86
2022/09/27 11:32:48;;;;;;;5.47;2.50;;;13.10;99.90;;;;;;4939700;29;20205;-86
2022/09/27 11:35:47;;;;;;;3.63;1.63;;;13.40;99.90;;;;;;4922336;29;20170;-85
2022/09/27 11:38:31;;;;;;;4.05;1.55;;;13.50;99.90;;;;;;4939439;29;20189;-87
2022/09/27 11:41:40;;;;;;;3.90;1.42;;;13.60;99.90;;;;;;4921665;29;20194;-84
2022/09/27 11:44:47;;;;;;;2.63;1.45;;;13.60;99.90;;;;;;4882703;29;20198;-92
2022/09/27 11:47:44;;;;;;;2.30;1.00;;;13.50;99.90;;;;;;4902057;29;20222;-87
2022/09/27 11:50:29;;;;;;;3.30;1.08;;;13.40;99.90;;;;;;4903560;29;20269;-89
2022/09/27 11:53:03;;;;;;;0.90;0.70;;;13.30;99.90;;;;;;4903246;29;20182;-86
2022/09/27 11:55:47;;;;;;;1.85;0.90;;;13.20;99.90;;;;;;4919481;29;20195;-87
2022/09/27 11:58:57;;;;;;;2.28;1.00;;;13.10;99.90;;;;;;4894415;29;20181;-87
2022/09/27 12:01:34;;;;;;;1.55;0.90;;;13.00;99.90;;;;;;4861843;29;20185;-87
2022/09/27 12:04:06;;;;;;;1.10;0.90;;;13.00;99.90;;;;;;4861776;29;20178;-85
2022/09/27 12:06:46;;;;;;;2.35;0.93;;;12.90;99.90;;;;;;4882151;29;20641;-89
2022/09/27 12:09:19;;;;;;;2.28;1.30;;;12.80;99.90;;;;;;4919853;29;20182;-89
2022/09/27 12:11:56;;;;;;;4.55;1.50;;;12.70;99.90;;;;;;4902129;29;20324;-87
2022/09/27 12:14:33;;;;;;;3.30;1.33;;;12.60;99.90;;;;;;4901112;29;20179;-87
2022/09/27 12:17:03;;;;;;;2.40;1.35;;;12.60;99.90;;;;;;4899008;29;20206;-85
2022/09/27 12:19:36;;;;;;;2.65;1.25;;;12.70;99.90;;;;;;4901029;29;20187;-87
2022/09/27 12:22:06;;;;;;;2.03;1.10;;;13.00;99.90;;;;;;4907543;29;20167;-90
2022/09/27 12:24:33;;;;;;;1.20;1.10;;;13.30;99.90;;;;;;4894719;29;20270;-86
2022/09/27 12:27:08;;;;;;;4.13;0.98;;;13.60;99.90;;;;;;4900562;29;20175;-87
2022/09/27 12:29:38;;;;;;;4.65;0.98;;;13.90;99.90;;;;;;4900903;29;20249;-87
2022/09/27 12:32:06;;;;;;;1.73;0.70;;;14.10;99.90;;;;;;4918128;29;20262;-86
2022/09/27 12:34:55;;;;;;;1.60;0.70;;;14.10;99.90;;;;;;4902754;29;20190;-87
2022/09/27 12:37:32;;;;;;;3.67;0.70;;;14.10;99.90;;;;;;4902583;29;20209;-86
2022/09/27 12:40:22;;;;;;;1.58;0.93;;;13.90;99.90;;;;;;4927885;29;20185;-89
2022/09/27 12:43:30;;;;;;;0.93;0.50;;;13.70;99.90;;;;;;4936205;29;20285;-90
2022/09/27 12:46:16;;;;;;;2.05;0.55;;;13.70;99.90;;;;;;4860970;29;20184;-85
2022/09/27 12:49:08;;;;;;;2.08;0.75;;;13.70;99.90;;;;;;4861218;29;20188;-87
2022/09/27 12:51:53;;;;;;;1.65;0.65;;;13.60;99.90;;;;;;4920637;29;20681;-87
2022/09/27 12:54:31;;;;;;;0.73;0.55;;;13.40;99.90;;;;;;4937589;29;20193;-88
2022/09/27 12:57:03;;;;;;;1.67;0.60;;;13.20;99.90;;;;;;4918230;29;20178;-87
2022/09/27 12:59:56;;;;;;;3.78;0.57;;;13.10;99.90;;;;;;4902250;29;20589;-89
2022/09/27 13:02:34;;;;;;;1.85;0.70;;;12.90;99.90;;;;;;4919176;29;20209;-86
2022/09/27 13:05:27;;;;;;;1.80;0.68;;;12.80;99.90;;;;;;4918865;29;20175;-88
2022/09/27 13:08:15;;;;;;;4.15;0.55;;;12.80;99.90;;;;;;4903930;29;20170;-87
2022/09/27 13:11:03;;;;;;;3.22;1.30;;;12.60;99.90;;;;;;4904066;29;20527;-87
2022/09/27 13:13:30;;;;;;;0.63;0.30;;;12.30;99.90;;;;;;4902788;29;20609;-93
2022/09/27 13:15:58;;;;;;;1.00;0.28;;;12.20;99.90;;;;;;4902473;29;20323;-89
2022/09/27 13:18:34;;;;;;;0.43;0.32;;;12.20;99.90;;;;;;4902222;29;20945;-87
2022/09/27 13:21:07;;;;;;;0.60;0.20;;;12.20;99.90;;;;;;4902096;29;20224;-89
2022/09/27 13:23:40;;;;;;;1.73;0.50;;;12.20;99.90;;;;;;4918972;29;20170;-92